createdAt,value
2022-12-27T00:01:11.449Z,17.67
2022-12-27T00:03:38.958Z,24.02
2022-12-27T00:06:07.673Z,19.20
2022-12-27T00:08:35.309Z,18.20
2022-12-27T00:11:07.145Z,16.20
2022-12-27T00:13:34.692Z,17.30
2022-12-27T00:16:05.943Z,18.65
2022-12-27T00:18:33.601Z,22.15
2022-12-27T00:21:01.845Z,20.80
2022-12-27T00:23:32.334Z,16.65
2022-12-27T00:26:01.523Z,17.65
2022-12-27T00:28:32.456Z,17.10
2022-12-27T00:31:00.628Z,20.80
2022-12-27T00:33:28.889Z,25.40
2022-12-27T00:35:56.676Z,26.42
2022-12-27T00:38:24.306Z,21.92
2022-12-27T00:40:52.009Z,25.88
2022-12-27T00:43:19.538Z,15.98
2022-12-27T00:45:48.717Z,23.63
2022-12-27T00:48:16.272Z,21.35
2022-12-27T00:50:44.897Z,18.17
2022-12-27T00:53:12.871Z,19.33
2022-12-27T00:55:43.001Z,26.83
2022-12-27T00:58:10.567Z,25.25
2022-12-27T01:00:38.398Z,27.10
2022-12-27T01:03:07.233Z,20.35
2022-12-27T01:05:37.344Z,18.77
2022-12-27T01:08:04.991Z,16.30
2022-12-27T01:10:32.557Z,21.63
2022-12-27T01:13:01.175Z,21.35
2022-12-27T01:15:28.914Z,22.95
2022-12-27T01:17:56.483Z,18.00
2022-12-27T01:20:25.579Z,21.30
2022-12-27T01:22:54.413Z,19.13
2022-12-27T01:25:21.980Z,19.17
2022-12-27T01:27:49.560Z,16.13
2022-12-27T01:30:17.080Z,21.50
2022-12-27T01:32:44.571Z,24.75
2022-12-27T01:35:12.085Z,21.40
2022-12-27T01:37:41.006Z,20.85
2022-12-27T01:40:09.357Z,21.33
2022-12-27T01:42:53.907Z,22.02
2022-12-27T01:45:22.073Z,20.88
2022-12-27T01:47:52.227Z,18.38
2022-12-27T01:50:24.662Z,23.67
2022-12-27T01:52:56.604Z,17.40
2022-12-27T01:55:26.288Z,24.65
2022-12-27T01:57:55.580Z,19.30
2022-12-27T02:00:23.495Z,23.10
2022-12-27T02:02:51.244Z,21.63
2022-12-27T02:05:20.170Z,19.65
2022-12-27T02:07:51.990Z,25.90
2022-12-27T02:10:21.366Z,22.45
2022-12-27T02:12:48.888Z,20.27
2022-12-27T02:15:16.435Z,21.52
2022-12-27T02:17:43.901Z,18.98
2022-12-27T02:20:13.188Z,15.75
2022-12-27T02:23:06.015Z,21.70
2022-12-27T02:25:43.998Z,16.17
2022-12-27T02:28:18.713Z,17.20
2022-12-27T02:30:49.115Z,15.63
2022-12-27T02:33:19.565Z,22.77
2022-12-27T02:35:51.805Z,17.83
2022-12-27T02:38:21.246Z,18.25
2022-12-27T02:41:07.064Z,18.08
2022-12-27T02:43:52.193Z,20.90
2022-12-27T02:46:40.151Z,22.35
2022-12-27T02:49:51.319Z,21.65
2022-12-27T02:52:44.071Z,21.55
2022-12-27T02:55:22.565Z,23.08
2022-12-27T02:57:53.222Z,20.52
2022-12-27T03:00:39.632Z,19.48
2022-12-27T03:03:23.976Z,19.75
2022-12-27T03:06:33.073Z,26.15
2022-12-27T03:09:07.926Z,23.38
2022-12-27T03:11:58.423Z,19.90
2022-12-27T03:14:46.125Z,20.35
2022-12-27T03:17:16.805Z,22.23
2022-12-27T03:20:06.502Z,24.33
2022-12-27T03:22:52.214Z,23.58
2022-12-27T03:25:31.528Z,27.65
2022-12-27T03:28:19.071Z,21.80
2022-12-27T03:31:05.464Z,29.13
2022-12-27T03:33:33.590Z,24.98
2022-12-27T03:36:24.079Z,26.10
2022-12-27T03:38:53.971Z,22.83
2022-12-27T03:41:42.691Z,22.05
2022-12-27T03:44:24.346Z,23.83
2022-12-27T03:46:54.393Z,27.15
2022-12-27T03:49:23.530Z,31.92
2022-12-27T03:51:54.610Z,29.13
2022-12-27T03:54:26.499Z,25.95
2022-12-27T03:56:55.602Z,30.00
2022-12-27T03:59:23.197Z,29.10
2022-12-27T04:01:50.773Z,29.92
2022-12-27T04:04:18.316Z,29.40
2022-12-27T04:06:45.905Z,27.65
2022-12-27T04:09:32.459Z,30.90
2022-12-27T04:12:17.363Z,25.10
2022-12-27T04:15:02.164Z,29.33
2022-12-27T04:17:46.941Z,31.05
2022-12-27T04:20:32.420Z,31.33
2022-12-27T04:23:17.316Z,32.55
2022-12-27T04:26:03.821Z,31.85
2022-12-27T04:28:48.751Z,28.25
2022-12-27T04:31:33.682Z,33.05
2022-12-27T04:34:18.929Z,31.40
2022-12-27T04:36:46.677Z,29.88
2022-12-27T04:39:14.247Z,32.45
2022-12-27T04:42:00.353Z,28.80
2022-12-27T04:44:45.656Z,32.53
2022-12-27T04:47:31.585Z,32.35
2022-12-27T04:50:16.412Z,35.63
2022-12-27T04:53:01.284Z,29.80
2022-12-27T04:55:30.972Z,30.63
2022-12-27T04:58:08.848Z,36.28
2022-12-27T05:00:54.157Z,36.47
2022-12-27T05:03:22.670Z,34.78
2022-12-27T05:05:51.823Z,40.67
2022-12-27T05:08:37.617Z,31.08
2022-12-27T05:11:23.197Z,37.88
2022-12-27T05:14:01.273Z,35.58
2022-12-27T05:16:29.486Z,37.92
2022-12-27T05:18:57.339Z,36.65
2022-12-27T05:21:24.969Z,41.63
2022-12-27T05:24:09.887Z,41.90
2022-12-27T05:26:38.368Z,39.05
2022-12-27T05:29:07.788Z,38.85
2022-12-27T05:31:35.500Z,43.90
2022-12-27T05:34:03.143Z,40.65
2022-12-27T05:36:33.923Z,36.67
2022-12-27T05:39:01.410Z,48.30
2022-12-27T05:41:28.969Z,58.75
2022-12-27T05:43:57.969Z,55.83
2022-12-27T05:46:28.613Z,47.95
2022-12-27T05:48:56.302Z,45.55
2022-12-27T05:51:23.973Z,59.72
2022-12-27T05:53:51.496Z,49.92
2022-12-27T05:56:19.975Z,55.70
2022-12-27T05:58:48.011Z,62.90
2022-12-27T06:01:16.828Z,62.80
2022-12-27T06:03:46.250Z,53.05
2022-12-27T06:06:14.085Z,51.15
2022-12-27T06:08:42.022Z,58.42
2022-12-27T06:11:20.112Z,77.78
2022-12-27T06:13:50.574Z,57.38
2022-12-27T06:16:18.558Z,67.00
2022-12-27T06:18:47.658Z,62.35
2022-12-27T06:21:16.305Z,58.63
2022-12-27T06:23:46.407Z,58.47
2022-12-27T06:26:15.837Z,60.15
2022-12-27T06:28:43.595Z,66.20
2022-12-27T06:31:11.852Z,64.95
2022-12-27T06:33:39.568Z,65.38
2022-12-27T06:36:09.590Z,69.47
2022-12-27T06:38:37.161Z,65.75
2022-12-27T06:41:05.487Z,59.38
2022-12-27T06:43:33.255Z,62.50
2022-12-27T06:46:01.509Z,65.07
2022-12-27T06:48:31.172Z,54.67
2022-12-27T06:51:11.083Z,66.82
2022-12-27T06:53:40.161Z,71.88
2022-12-27T06:56:08.904Z,68.82
2022-12-27T06:58:36.949Z,82.18
2022-12-27T07:01:08.161Z,74.18
2022-12-27T07:03:35.749Z,66.65
2022-12-27T07:06:03.564Z,80.90
2022-12-27T07:08:31.143Z,67.15
2022-12-27T07:11:02.222Z,69.28
2022-12-27T07:13:31.087Z,77.00
2022-12-27T07:16:00.497Z,65.15
2022-12-27T07:18:28.034Z,72.35
2022-12-27T07:20:55.955Z,80.15
2022-12-27T07:23:23.610Z,74.80
2022-12-27T07:25:51.178Z,82.38
2022-12-27T07:28:20.073Z,81.70
2022-12-27T07:30:49.565Z,91.93
2022-12-27T07:36:15.464Z,90.47
2022-12-27T07:38:43.102Z,75.15
2022-12-27T07:41:11.738Z,88.80
2022-12-27T07:43:43.460Z,88.88
2022-12-27T07:46:12.512Z,81.25
2022-12-27T07:48:44.855Z,87.72
2022-12-27T07:51:12.700Z,76.05
2022-12-27T07:53:41.688Z,92.95
2022-12-27T07:56:10.033Z,81.63
2022-12-27T07:58:38.728Z,80.78
2022-12-27T08:01:08.405Z,76.28
2022-12-27T08:03:38.402Z,68.07
2022-12-27T08:06:09.828Z,75.55
2022-12-27T08:08:39.103Z,88.03
2022-12-27T08:11:07.238Z,87.82
2022-12-27T08:13:35.209Z,79.50
2022-12-27T08:16:02.893Z,76.97
2022-12-27T08:18:34.891Z,80.13
2022-12-27T08:21:02.455Z,77.78
2022-12-27T08:23:30.078Z,74.30
2022-12-27T08:25:58.173Z,76.10
2022-12-27T08:28:27.372Z,80.07
2022-12-27T08:30:55.095Z,66.72
2022-12-27T08:33:22.831Z,78.82
2022-12-27T08:35:54.102Z,59.38
2022-12-27T08:38:23.826Z,78.72
2022-12-27T08:41:04.848Z,75.28
2022-12-27T08:43:38.431Z,71.60
2022-12-27T08:46:08.049Z,68.82
2022-12-27T08:48:37.678Z,80.22
2022-12-27T08:51:12.155Z,85.32
2022-12-27T08:53:41.511Z,88.85
2022-12-27T08:56:09.140Z,84.68
2022-12-27T08:58:36.883Z,83.95
2022-12-27T09:01:07.423Z,86.88
2022-12-27T09:03:35.430Z,78.45
2022-12-27T09:06:15.429Z,85.47
2022-12-27T09:08:43.862Z,81.03
2022-12-27T09:11:12.491Z,79.32
2022-12-27T09:13:40.227Z,75.95
2022-12-27T09:16:08.926Z,74.97
2022-12-27T09:18:36.605Z,74.40
2022-12-27T09:21:04.822Z,66.90
2022-12-27T09:23:33.913Z,70.38
2022-12-27T09:26:05.081Z,72.82
2022-12-27T09:28:34.097Z,63.10
2022-12-27T09:31:01.770Z,68.85
2022-12-27T09:33:32.341Z,73.68
2022-12-27T09:36:07.151Z,61.83
2022-12-27T09:38:37.122Z,64.13
2022-12-27T09:41:09.153Z,60.10
2022-12-27T09:43:52.163Z,59.40
2022-12-27T09:46:23.515Z,62.83
2022-12-27T09:49:07.627Z,55.97
2022-12-27T09:51:49.944Z,58.47
2022-12-27T09:54:21.211Z,63.42
2022-12-27T09:57:19.058Z,65.15
2022-12-27T10:02:42.236Z,58.53
2022-12-27T10:05:20.912Z,68.00
2022-12-27T10:07:52.637Z,78.22
2022-12-27T10:10:23.904Z,74.47
2022-12-27T10:13:00.698Z,76.60
2022-12-27T10:15:42.500Z,72.75
2022-12-27T10:21:06.148Z,74.78
2022-12-27T10:23:35.590Z,87.15
2022-12-27T10:26:07.232Z,82.13
2022-12-27T10:28:44.618Z,77.72
2022-12-27T10:31:16.829Z,75.57
2022-12-27T10:33:44.870Z,72.32
2022-12-27T10:36:15.162Z,80.28
2022-12-27T10:38:43.059Z,71.07
2022-12-27T10:41:40.205Z,77.43
2022-12-27T10:44:11.853Z,84.13
2022-12-27T10:46:40.006Z,81.68
2022-12-27T10:49:24.753Z,71.13
2022-12-27T10:51:53.060Z,67.15
2022-12-27T10:54:23.928Z,66.57
2022-12-27T10:56:55.846Z,59.92
2022-12-27T10:59:24.455Z,60.65
2022-12-27T11:02:09.348Z,63.75
2022-12-27T11:04:37.228Z,64.13
2022-12-27T11:07:26.538Z,51.97
2022-12-27T11:13:06.058Z,50.88
2022-12-27T11:15:43.383Z,52.05
2022-12-27T11:19:11.695Z,60.05
2022-12-27T11:21:46.056Z,56.58
2022-12-27T11:28:00.105Z,57.50
2022-12-27T11:30:39.840Z,54.65
2022-12-27T11:33:25.033Z,57.47
2022-12-27T11:36:14.781Z,56.78
2022-12-27T11:38:45.155Z,59.17
2022-12-27T11:41:28.157Z,54.97
2022-12-27T11:44:04.528Z,52.80
2022-12-27T11:46:58.763Z,50.65
2022-12-27T11:49:36.026Z,51.97
2022-12-27T11:53:08.542Z,46.42
2022-12-27T11:55:51.131Z,46.17
2022-12-27T11:58:28.282Z,49.90
2022-12-27T12:01:02.054Z,64.40
2022-12-27T12:03:45.859Z,61.20
2022-12-27T12:06:17.070Z,59.55
2022-12-27T12:09:00.130Z,62.85
2022-12-27T12:12:09.425Z,62.63
2022-12-27T12:15:01.595Z,62.75
2022-12-27T12:17:47.115Z,66.35
2022-12-27T12:24:12.713Z,64.32
2022-12-27T12:33:54.580Z,76.90
2022-12-27T12:37:02.190Z,70.15
2022-12-27T12:39:52.191Z,70.65
2022-12-27T12:42:29.796Z,70.72
2022-12-27T12:45:07.373Z,77.72
2022-12-27T12:47:48.551Z,86.25
2022-12-27T12:50:23.774Z,66.93
2022-12-27T12:53:03.068Z,80.00
2022-12-27T12:55:38.901Z,76.95
2022-12-27T12:58:19.092Z,77.07
2022-12-27T13:01:03.914Z,76.07
2022-12-27T13:03:59.843Z,74.43
2022-12-27T13:06:48.360Z,77.80
2022-12-27T13:09:26.525Z,73.65
2022-12-27T13:11:58.568Z,79.05
2022-12-27T13:14:50.175Z,81.45
2022-12-27T13:22:39.413Z,79.80
2022-12-27T13:25:16.157Z,70.88
2022-12-27T13:27:48.835Z,94.65
2022-12-27T13:30:21.438Z,72.32
2022-12-27T13:33:09.916Z,84.35
2022-12-27T13:35:44.245Z,79.15
2022-12-27T13:41:51.130Z,60.58
2022-12-27T13:44:33.887Z,70.60
2022-12-27T13:47:10.987Z,86.93
2022-12-27T13:49:56.889Z,62.90
2022-12-27T13:52:39.647Z,65.13
2022-12-27T13:55:17.182Z,58.13
2022-12-27T13:58:03.418Z,50.83
2022-12-27T14:00:34.521Z,62.72
2022-12-27T14:03:07.836Z,58.08
2022-12-27T14:05:53.503Z,78.30
2022-12-27T14:08:27.127Z,59.47
2022-12-27T14:11:00.905Z,55.30
2022-12-27T14:16:27.076Z,61.28
2022-12-27T14:19:21.635Z,55.42
2022-12-27T14:22:05.600Z,41.28
2022-12-27T14:24:47.990Z,40.65
2022-12-27T14:27:49.121Z,35.67
2022-12-27T14:30:23.177Z,34.50
2022-12-27T14:33:05.659Z,32.65
2022-12-27T14:35:45.830Z,24.67
2022-12-27T14:38:31.919Z,17.92
2022-12-27T14:41:09.441Z,19.88
2022-12-27T14:43:58.817Z,14.93
2022-12-27T14:46:43.971Z,14.98
2022-12-27T14:49:43.309Z,11.85
2022-12-27T14:52:25.874Z,13.55
2022-12-27T14:55:02.647Z,8.63
2022-12-27T14:57:46.455Z,11.88
2022-12-27T15:00:21.496Z,8.80
2022-12-27T15:03:06.785Z,9.15
2022-12-27T15:05:54.822Z,10.13
2022-12-27T15:08:37.102Z,13.40
2022-12-27T15:11:15.633Z,8.95
2022-12-27T15:13:51.992Z,10.52
2022-12-27T15:16:22.660Z,7.38
2022-12-27T15:18:57.442Z,8.25
2022-12-27T15:21:33.652Z,6.28
2022-12-27T15:24:11.380Z,7.80
2022-12-27T15:26:46.915Z,8.77
2022-12-27T15:29:23.392Z,8.70
2022-12-27T15:31:57.297Z,8.50
2022-12-27T15:34:36.881Z,7.15
2022-12-27T15:37:05.306Z,7.43
2022-12-27T15:40:06.751Z,6.72
2022-12-27T15:42:55.467Z,6.95
2022-12-27T15:45:42.810Z,6.25
2022-12-27T15:48:36.099Z,5.35
2022-12-27T15:51:07.337Z,5.18
2022-12-27T15:53:52.674Z,6.10
2022-12-27T15:56:42.039Z,3.42
2022-12-27T15:59:28.305Z,4.55
2022-12-27T16:02:10.961Z,3.70
2022-12-27T16:04:49.635Z,1.75
2022-12-27T16:07:36.925Z,3.05
2022-12-27T16:10:19.369Z,3.90
2022-12-27T16:12:48.928Z,2.13
2022-12-27T16:15:37.595Z,3.75
2022-12-27T16:18:06.020Z,2.83
2022-12-27T16:20:35.419Z,1.70
2022-12-27T16:23:04.025Z,1.45
2022-12-27T16:25:38.897Z,1.73
2022-12-27T16:28:08.862Z,1.30
2022-12-27T16:30:52.245Z,0.82
2022-12-27T16:33:23.226Z,1.42
2022-12-27T16:36:07.481Z,1.95
2022-12-27T16:38:36.077Z,1.90
2022-12-27T16:41:14.087Z,1.83
2022-12-27T16:43:52.702Z,1.52
2022-12-27T16:46:35.565Z,3.70
2022-12-27T16:49:13.367Z,2.03
2022-12-27T16:51:47.474Z,1.60
2022-12-27T16:54:26.138Z,1.83
2022-12-27T16:57:16.897Z,3.80
2022-12-27T16:59:58.476Z,1.85
2022-12-27T17:02:34.259Z,2.10
2022-12-27T17:05:03.372Z,1.92
2022-12-27T17:07:48.895Z,1.10
2022-12-27T17:10:34.095Z,1.50
2022-12-27T17:13:05.984Z,1.73
2022-12-27T17:15:35.301Z,1.52
2022-12-27T17:18:08.199Z,1.10
2022-12-27T17:20:38.047Z,1.83
2022-12-27T17:23:05.910Z,1.00
2022-12-27T17:25:45.302Z,2.45
2022-12-27T17:28:13.917Z,2.65
2022-12-27T17:30:49.090Z,2.17
2022-12-27T17:33:27.217Z,3.70
2022-12-27T17:36:01.112Z,3.90
2022-12-27T17:38:39.602Z,1.58
2022-12-27T17:41:15.979Z,1.42
2022-12-27T17:44:07.183Z,1.58
2022-12-27T17:46:50.364Z,5.32
2022-12-27T17:49:19.286Z,2.42
2022-12-27T17:52:01.466Z,4.72
2022-12-27T17:54:56.091Z,7.30
2022-12-27T17:57:46.394Z,4.50
2022-12-27T18:00:22.730Z,6.90
2022-12-27T18:02:52.460Z,2.97
2022-12-27T18:05:27.403Z,9.73
2022-12-27T18:08:02.946Z,9.57
2022-12-27T18:10:31.763Z,6.35
2022-12-27T18:13:08.081Z,5.78
2022-12-27T18:15:37.056Z,10.55
2022-12-27T18:18:16.306Z,10.75
2022-12-27T18:20:50.024Z,7.20
2022-12-27T18:23:19.221Z,4.90
2022-12-27T18:25:55.266Z,8.90
2022-12-27T18:28:33.507Z,6.85
2022-12-27T18:31:07.129Z,3.95
2022-12-27T18:33:39.362Z,3.30
2022-12-27T18:36:15.646Z,11.02
2022-12-27T18:38:46.994Z,4.90
2022-12-27T18:41:16.620Z,4.20
2022-12-27T18:44:11.002Z,6.05
2022-12-27T18:47:02.203Z,6.53
2022-12-27T18:49:34.966Z,4.82
2022-12-27T18:52:24.470Z,8.90
2022-12-27T18:54:57.201Z,11.77
2022-12-27T18:57:41.418Z,11.20
2022-12-27T19:00:34.096Z,3.25
2022-12-27T19:03:13.478Z,9.65
2022-12-27T19:05:57.283Z,7.10
2022-12-27T19:08:28.301Z,7.03
2022-12-27T19:10:55.934Z,5.00
2022-12-27T19:13:27.271Z,4.78
2022-12-27T19:16:05.251Z,13.63
2022-12-27T19:18:36.293Z,6.88
2022-12-27T19:21:06.720Z,12.50
2022-12-27T19:23:38.612Z,6.40
2022-12-27T19:26:08.866Z,15.10
2022-12-27T19:28:36.833Z,10.02
2022-12-27T19:31:20.521Z,6.03
2022-12-27T19:33:50.469Z,8.00
2022-12-27T19:36:20.795Z,3.60
2022-12-27T19:38:49.875Z,11.35
2022-12-27T19:41:17.379Z,10.77
2022-12-27T19:50:02.328Z,4.68
2022-12-27T19:56:13.763Z,7.93
2022-12-27T19:58:45.616Z,7.10
2022-12-27T20:01:27.593Z,10.00
2022-12-27T20:04:08.505Z,9.10
2022-12-27T20:06:36.267Z,5.63
2022-12-27T20:09:06.362Z,7.85
2022-12-27T20:11:35.182Z,7.47
2022-12-27T20:14:04.365Z,5.28
2022-12-27T20:16:31.944Z,7.43
2022-12-27T20:18:59.635Z,10.35
2022-12-27T20:21:28.839Z,8.65
2022-12-27T20:23:57.436Z,9.10
2022-12-27T20:26:25.965Z,6.13
2022-12-27T20:28:53.642Z,7.90
2022-12-27T20:31:23.466Z,10.02
2022-12-27T20:33:54.684Z,11.43
2022-12-27T20:36:23.564Z,6.65
2022-12-27T20:38:51.301Z,7.25
2022-12-27T20:41:20.684Z,11.43
2022-12-27T20:43:48.558Z,7.38
2022-12-27T20:46:17.171Z,13.43
2022-12-27T20:48:46.987Z,3.47
2022-12-27T20:51:15.614Z,6.38
2022-12-27T20:53:44.372Z,13.35
2022-12-27T20:56:13.412Z,5.55
2022-12-27T20:58:41.248Z,6.75
2022-12-27T21:01:12.171Z,9.05
2022-12-27T21:03:42.645Z,7.68
2022-12-27T21:06:13.224Z,6.63
2022-12-27T21:08:47.768Z,22.95
2022-12-27T21:11:18.952Z,7.07
2022-12-27T21:13:48.493Z,9.20
2022-12-27T21:16:17.256Z,9.88
2022-12-27T21:18:44.881Z,7.80
2022-12-27T21:21:14.843Z,6.80
2022-12-27T21:23:43.595Z,7.82
2022-12-27T21:26:11.888Z,9.60
2022-12-27T21:28:39.660Z,9.25
2022-12-27T21:31:07.973Z,6.70
2022-12-27T21:33:36.625Z,5.93
2022-12-27T21:36:05.372Z,8.35
2022-12-27T21:38:34.758Z,8.43
2022-12-27T21:41:03.289Z,9.25
2022-12-27T21:43:30.998Z,8.93
2022-12-27T21:45:58.932Z,5.80
2022-12-27T21:48:26.571Z,8.85
2022-12-27T21:50:56.981Z,7.60
2022-12-27T21:53:24.526Z,7.80
2022-12-27T21:55:58.344Z,13.88
2022-12-27T21:58:25.902Z,11.55
2022-12-27T22:00:57.836Z,6.97
2022-12-27T22:03:25.731Z,5.25
2022-12-27T22:05:53.350Z,9.30
2022-12-27T22:08:23.974Z,9.90
2022-12-27T22:11:00.280Z,4.78
2022-12-27T22:13:28.885Z,8.10
2022-12-27T22:15:57.209Z,12.02
2022-12-27T22:18:35.470Z,12.10
2022-12-27T22:21:03.962Z,8.07
2022-12-27T22:23:32.683Z,4.13
2022-12-27T22:26:01.707Z,7.20
2022-12-27T22:28:29.546Z,8.40
2022-12-27T22:31:08.825Z,13.45
2022-12-27T22:33:41.362Z,12.77
2022-12-27T22:36:10.294Z,9.55
2022-12-27T22:38:38.067Z,13.07
2022-12-27T22:41:10.126Z,11.07
2022-12-27T22:43:37.843Z,4.32
2022-12-27T22:46:08.809Z,15.25
2022-12-27T22:48:38.663Z,9.00
2022-12-27T22:51:09.709Z,10.10
2022-12-27T22:53:37.317Z,4.85
2022-12-27T22:56:05.152Z,8.57
2022-12-27T22:58:34.066Z,8.30
2022-12-27T23:01:01.698Z,8.77
2022-12-27T23:03:29.288Z,4.15
2022-12-27T23:05:57.604Z,15.18
2022-12-27T23:08:25.123Z,7.35
2022-12-27T23:10:52.733Z,8.00
2022-12-27T23:13:22.315Z,7.43
2022-12-27T23:15:56.563Z,9.80
2022-12-27T23:18:24.162Z,10.23
2022-12-27T23:21:20.490Z,15.32
2022-12-27T23:23:39.786Z,7.88
2022-12-27T23:26:08.134Z,8.68
2022-12-27T23:28:36.159Z,12.18
2022-12-27T23:31:05.394Z,4.82
2022-12-27T23:33:33.719Z,6.00
2022-12-27T23:36:01.661Z,5.80
2022-12-27T23:38:29.587Z,8.77
2022-12-27T23:40:57.810Z,7.65
2022-12-27T23:46:16.010Z,13.52
2022-12-27T23:48:43.832Z,9.25
2022-12-27T23:51:12.128Z,14.23
2022-12-27T23:53:39.674Z,8.63
2022-12-27T23:56:08.240Z,11.30
2022-12-27T23:58:37.204Z,16.55
